Indian Springs, Alabama
Current Conditions -  °F | °C
As of 10:53 AM on Saturday 20 Dec 2014 (Local Time) from KEET Reporting Station
Overcast Overcast  
Wind Chill: 47°   Ceiling: 2400
Heat Index: 47°   Visibility: 9mi
Dew Point: 41°   Wind: 3mph
Humidity: 80%   Direction: 40°NE
Pressure: 30.22"   Gusts: NA
Location:  33.3024°N, 86.8026°W
Report Text: KEET 201653Z AUTO 04003KT 9SM OVC024 08/05 A3022 RMK AO2 SLP235 T00830050
Loading
Personal Weather Stations






























Interactive Weather Map New forecast layout! Learn more

10-Day Weather Forecast

Advertisements
Track Severe Weather on mobile